sensor_id;sensor_type;location;lat;lon;timestamp;P1;durP1;ratioP1;P2;durP2;ratioP2
46589;SDS011;32313;48.722;9.362;2022-09-21T00:01:48;21.77;;;19.43;;
46589;SDS011;32313;48.722;9.362;2022-09-21T00:04:14;21.77;;;19.27;;
46589;SDS011;32313;48.722;9.362;2022-09-21T00:06:40;24.30;;;19.73;;
46589;SDS011;32313;48.722;9.362;2022-09-21T00:09:05;20.60;;;18.27;;
46589;SDS011;32313;48.722;9.362;2022-09-21T00:11:33;23.33;;;18.37;;
46589;SDS011;32313;48.722;9.362;2022-09-21T00:14:02;21.33;;;18.43;;
46589;SDS011;32313;48.722;9.362;2022-09-21T00:16:31;21.33;;;19.10;;
46589;SDS011;32313;48.722;9.362;2022-09-21T00:18:58;23.10;;;18.60;;
46589;SDS011;32313;48.722;9.362;2022-09-21T00:21:24;21.13;;;19.00;;
46589;SDS011;32313;48.722;9.362;2022-09-21T00:23:50;20.13;;;18.03;;
46589;SDS011;32313;48.722;9.362;2022-09-21T00:26:16;21.13;;;18.93;;
46589;SDS011;32313;48.722;9.362;2022-09-21T00:28:44;25.70;;;19.47;;
46589;SDS011;32313;48.722;9.362;2022-09-21T00:31:11;22.80;;;19.93;;
46589;SDS011;32313;48.722;9.362;2022-09-21T00:33:39;20.97;;;18.83;;
46589;SDS011;32313;48.722;9.362;2022-09-21T00:36:06;22.67;;;18.07;;
46589;SDS011;32313;48.722;9.362;2022-09-21T00:38:34;21.37;;;18.87;;
46589;SDS011;32313;48.722;9.362;2022-09-21T00:41:01;21.53;;;19.23;;
46589;SDS011;32313;48.722;9.362;2022-09-21T00:43:27;26.17;;;19.33;;
46589;SDS011;32313;48.722;9.362;2022-09-21T00:45:56;23.43;;;18.77;;
46589;SDS011;32313;48.722;9.362;2022-09-21T00:48:28;22.40;;;19.30;;
46589;SDS011;32313;48.722;9.362;2022-09-21T00:50:56;20.47;;;18.33;;
46589;SDS011;32313;48.722;9.362;2022-09-21T00:53:28;23.90;;;19.73;;
46589;SDS011;32313;48.722;9.362;2022-09-21T00:55:54;24.87;;;21.03;;
46589;SDS011;32313;48.722;9.362;2022-09-21T00:58:24;22.70;;;20.27;;
46589;SDS011;32313;48.722;9.362;2022-09-21T01:00:54;24.53;;;20.10;;
46589;SDS011;32313;48.722;9.362;2022-09-21T01:03:21;22.90;;;19.20;;
46589;SDS011;32313;48.722;9.362;2022-09-21T01:05:47;22.53;;;20.13;;
46589;SDS011;32313;48.722;9.362;2022-09-21T01:08:13;21.43;;;18.93;;
46589;SDS011;32313;48.722;9.362;2022-09-21T01:25:05;22.73;;;20.43;;
46589;SDS011;32313;48.722;9.362;2022-09-21T01:27:40;23.63;;;20.97;;
46589;SDS011;32313;48.722;9.362;2022-09-21T01:30:17;21.90;;;19.63;;
46589;SDS011;32313;48.722;9.362;2022-09-21T01:32:47;21.47;;;19.23;;
46589;SDS011;32313;48.722;9.362;2022-09-21T01:35:24;21.63;;;19.53;;
46589;SDS011;32313;48.722;9.362;2022-09-21T01:38:07;23.33;;;20.47;;
46589;SDS011;32313;48.722;9.362;2022-09-21T01:40:38;22.90;;;20.07;;
46589;SDS011;32313;48.722;9.362;2022-09-21T01:43:08;24.03;;;19.90;;
46589;SDS011;32313;48.722;9.362;2022-09-21T01:45:39;22.37;;;19.87;;
46589;SDS011;32313;48.722;9.362;2022-09-21T01:48:10;22.67;;;20.37;;
46589;SDS011;32313;48.722;9.362;2022-09-21T01:50:43;23.23;;;19.60;;
46589;SDS011;32313;48.722;9.362;2022-09-21T01:56:19;20.20;;;18.13;;
46589;SDS011;32313;48.722;9.362;2022-09-21T02:01:28;21.77;;;19.40;;
46589;SDS011;32313;48.722;9.362;2022-09-21T02:04:05;20.60;;;18.33;;
46589;SDS011;32313;48.722;9.362;2022-09-21T02:06:34;22.10;;;19.80;;
46589;SDS011;32313;48.722;9.362;2022-09-21T02:09:07;23.53;;;20.40;;
46589;SDS011;32313;48.722;9.362;2022-09-21T02:11:34;21.27;;;19.27;;
46589;SDS011;32313;48.722;9.362;2022-09-21T02:14:02;22.20;;;19.20;;
46589;SDS011;32313;48.722;9.362;2022-09-21T02:16:35;21.13;;;18.80;;
46589;SDS011;32313;48.722;9.362;2022-09-21T02:43:35;21.03;;;18.77;;
46589;SDS011;32313;48.722;9.362;2022-09-21T02:48:54;22.47;;;19.87;;
46589;SDS011;32313;48.722;9.362;2022-09-21T02:51:31;24.57;;;20.83;;
46589;SDS011;32313;48.722;9.362;2022-09-21T02:54:03;20.77;;;18.47;;
46589;SDS011;32313;48.722;9.362;2022-09-21T02:56:30;23.03;;;20.63;;
46589;SDS011;32313;48.722;9.362;2022-09-21T02:58:58;21.17;;;18.97;;
46589;SDS011;32313;48.722;9.362;2022-09-21T03:01:27;23.00;;;20.57;;
46589;SDS011;32313;48.722;9.362;2022-09-21T03:03:53;23.67;;;20.00;;
46589;SDS011;32313;48.722;9.362;2022-09-21T03:06:19;22.67;;;20.20;;
46589;SDS011;32313;48.722;9.362;2022-09-21T03:08:45;22.57;;;19.87;;
46589;SDS011;32313;48.722;9.362;2022-09-21T03:11:14;22.93;;;20.50;;
46589;SDS011;32313;48.722;9.362;2022-09-21T03:13:41;22.20;;;19.90;;
46589;SDS011;32313;48.722;9.362;2022-09-21T03:16:07;25.83;;;20.73;;
46589;SDS011;32313;48.722;9.362;2022-09-21T03:18:32;25.43;;;20.47;;
46589;SDS011;32313;48.722;9.362;2022-09-21T03:20:59;21.97;;;19.67;;
46589;SDS011;32313;48.722;9.362;2022-09-21T03:23:26;23.80;;;21.30;;
46589;SDS011;32313;48.722;9.362;2022-09-21T03:25:51;23.93;;;21.43;;
46589;SDS011;32313;48.722;9.362;2022-09-21T03:28:18;23.93;;;20.60;;
46589;SDS011;32313;48.722;9.362;2022-09-21T03:30:49;24.97;;;20.97;;
46589;SDS011;32313;48.722;9.362;2022-09-21T03:33:16;24.13;;;21.43;;
46589;SDS011;32313;48.722;9.362;2022-09-21T03:35:43;25.53;;;21.23;;
46589;SDS011;32313;48.722;9.362;2022-09-21T03:38:09;24.13;;;21.03;;
46589;SDS011;32313;48.722;9.362;2022-09-21T03:40:35;23.47;;;21.07;;
46589;SDS011;32313;48.722;9.362;2022-09-21T03:43:01;24.07;;;21.40;;
46589;SDS011;32313;48.722;9.362;2022-09-21T03:45:27;23.93;;;20.07;;
46589;SDS011;32313;48.722;9.362;2022-09-21T03:47:57;28.40;;;20.17;;
46589;SDS011;32313;48.722;9.362;2022-09-21T03:50:25;27.60;;;21.77;;
46589;SDS011;32313;48.722;9.362;2022-09-21T03:52:52;26.80;;;20.90;;
46589;SDS011;32313;48.722;9.362;2022-09-21T03:55:18;23.10;;;20.40;;
46589;SDS011;32313;48.722;9.362;2022-09-21T03:57:44;23.87;;;20.83;;
46589;SDS011;32313;48.722;9.362;2022-09-21T04:00:10;26.00;;;20.90;;
46589;SDS011;32313;48.722;9.362;2022-09-21T04:02:37;23.93;;;21.43;;
46589;SDS011;32313;48.722;9.362;2022-09-21T04:05:05;21.23;;;18.80;;
46589;SDS011;32313;48.722;9.362;2022-09-21T04:07:35;23.57;;;20.17;;
46589;SDS011;32313;48.722;9.362;2022-09-21T04:10:05;25.27;;;21.23;;
46589;SDS011;32313;48.722;9.362;2022-09-21T04:12:32;23.63;;;19.80;;
46589;SDS011;32313;48.722;9.362;2022-09-21T04:14:59;27.27;;;21.07;;
46589;SDS011;32313;48.722;9.362;2022-09-21T04:17:25;25.63;;;21.20;;
46589;SDS011;32313;48.722;9.362;2022-09-21T04:19:51;23.13;;;20.50;;
46589;SDS011;32313;48.722;9.362;2022-09-21T04:22:17;22.30;;;20.07;;
46589;SDS011;32313;48.722;9.362;2022-09-21T04:24:43;29.03;;;21.87;;
46589;SDS011;32313;48.722;9.362;2022-09-21T04:27:09;24.87;;;21.10;;
46589;SDS011;32313;48.722;9.362;2022-09-21T04:29:36;23.60;;;20.93;;
46589;SDS011;32313;48.722;9.362;2022-09-21T04:32:02;23.80;;;19.90;;
46589;SDS011;32313;48.722;9.362;2022-09-21T04:34:29;23.70;;;20.67;;
46589;SDS011;32313;48.722;9.362;2022-09-21T04:36:58;22.63;;;19.63;;
46589;SDS011;32313;48.722;9.362;2022-09-21T04:39:24;22.30;;;19.90;;
46589;SDS011;32313;48.722;9.362;2022-09-21T04:41:50;23.87;;;21.40;;
46589;SDS011;32313;48.722;9.362;2022-09-21T04:44:16;22.93;;;20.43;;
46589;SDS011;32313;48.722;9.362;2022-09-21T04:46:44;23.93;;;21.30;;
46589;SDS011;32313;48.722;9.362;2022-09-21T04:49:10;22.20;;;19.90;;
46589;SDS011;32313;48.722;9.362;2022-09-21T04:51:35;24.03;;;20.90;;
46589;SDS011;32313;48.722;9.362;2022-09-21T04:54:01;23.07;;;20.60;;
46589;SDS011;32313;48.722;9.362;2022-09-21T04:56:27;22.70;;;20.23;;
46589;SDS011;32313;48.722;9.362;2022-09-21T04:58:53;23.57;;;20.60;;
46589;SDS011;32313;48.722;9.362;2022-09-21T05:01:19;25.30;;;21.50;;
46589;SDS011;32313;48.722;9.362;2022-09-21T05:03:44;29.47;;;22.20;;
46589;SDS011;32313;48.722;9.362;2022-09-21T05:06:10;25.33;;;21.67;;
46589;SDS011;32313;48.722;9.362;2022-09-21T05:08:37;25.07;;;22.07;;
46589;SDS011;32313;48.722;9.362;2022-09-21T05:11:22;26.00;;;22.27;;
46589;SDS011;32313;48.722;9.362;2022-09-21T05:13:48;25.20;;;22.03;;
46589;SDS011;32313;48.722;9.362;2022-09-21T05:16:15;21.40;;;19.00;;
46589;SDS011;32313;48.722;9.362;2022-09-21T05:18:41;27.77;;;21.60;;
46589;SDS011;32313;48.722;9.362;2022-09-21T05:21:08;26.57;;;20.43;;
46589;SDS011;32313;48.722;9.362;2022-09-21T05:23:35;24.40;;;21.43;;
46589;SDS011;32313;48.722;9.362;2022-09-21T05:26:01;26.27;;;21.37;;
46589;SDS011;32313;48.722;9.362;2022-09-21T05:28:26;26.77;;;21.00;;
46589;SDS011;32313;48.722;9.362;2022-09-21T05:30:56;31.90;;;21.80;;
46589;SDS011;32313;48.722;9.362;2022-09-21T05:33:25;73.70;;;23.67;;
46589;SDS011;32313;48.722;9.362;2022-09-21T05:38:42;107.97;;;26.67;;
46589;SDS011;32313;48.722;9.362;2022-09-21T05:41:08;82.73;;;26.20;;
46589;SDS011;32313;48.722;9.362;2022-09-21T05:43:34;50.03;;;22.90;;
46589;SDS011;32313;48.722;9.362;2022-09-21T05:46:15;46.17;;;21.97;;
46589;SDS011;32313;48.722;9.362;2022-09-21T05:48:53;26.87;;;18.67;;
46589;SDS011;32313;48.722;9.362;2022-09-21T05:54:39;25.93;;;19.77;;
46589;SDS011;32313;48.722;9.362;2022-09-21T05:57:34;22.63;;;19.23;;
46589;SDS011;32313;48.722;9.362;2022-09-21T06:00:16;23.60;;;19.50;;
46589;SDS011;32313;48.722;9.362;2022-09-21T06:05:46;21.43;;;19.13;;
46589;SDS011;32313;48.722;9.362;2022-09-21T06:08:12;22.03;;;19.83;;
46589;SDS011;32313;48.722;9.362;2022-09-21T06:10:37;24.90;;;20.27;;
46589;SDS011;32313;48.722;9.362;2022-09-21T06:13:03;23.90;;;21.17;;
46589;SDS011;32313;48.722;9.362;2022-09-21T06:15:29;21.30;;;19.27;;
46589;SDS011;32313;48.722;9.362;2022-09-21T06:17:54;22.13;;;18.93;;
46589;SDS011;32313;48.722;9.362;2022-09-21T06:20:24;24.03;;;18.93;;
46589;SDS011;32313;48.722;9.362;2022-09-21T06:22:50;21.77;;;19.17;;
46589;SDS011;32313;48.722;9.362;2022-09-21T06:25:16;20.23;;;18.20;;
46589;SDS011;32313;48.722;9.362;2022-09-21T06:27:43;23.90;;;20.70;;
46589;SDS011;32313;48.722;9.362;2022-09-21T06:30:09;20.20;;;18.07;;
46589;SDS011;32313;48.722;9.362;2022-09-21T06:32:35;19.83;;;18.00;;
46589;SDS011;32313;48.722;9.362;2022-09-21T06:35:01;23.30;;;20.83;;
46589;SDS011;32313;48.722;9.362;2022-09-21T06:37:26;25.97;;;21.03;;
46589;SDS011;32313;48.722;9.362;2022-09-21T06:39:52;21.33;;;18.03;;
46589;SDS011;32313;48.722;9.362;2022-09-21T06:42:17;23.53;;;20.10;;
46589;SDS011;32313;48.722;9.362;2022-09-21T06:44:43;18.20;;;15.67;;
46589;SDS011;32313;48.722;9.362;2022-09-21T06:47:09;18.30;;;15.87;;
46589;SDS011;32313;48.722;9.362;2022-09-21T06:49:34;13.53;;;12.23;;
46589;SDS011;32313;48.722;9.362;2022-09-21T06:52:00;12.93;;;11.00;;
46589;SDS011;32313;48.722;9.362;2022-09-21T06:54:26;12.27;;;11.07;;
46589;SDS011;32313;48.722;9.362;2022-09-21T06:56:51;11.10;;;9.93;;
46589;SDS011;32313;48.722;9.362;2022-09-21T06:59:17;10.93;;;9.83;;
46589;SDS011;32313;48.722;9.362;2022-09-21T07:01:44;9.67;;;8.67;;
46589;SDS011;32313;48.722;9.362;2022-09-21T07:04:09;10.33;;;8.23;;
46589;SDS011;32313;48.722;9.362;2022-09-21T07:06:35;9.20;;;8.13;;
46589;SDS011;32313;48.722;9.362;2022-09-21T07:09:01;9.13;;;7.77;;
46589;SDS011;32313;48.722;9.362;2022-09-21T07:11:29;9.33;;;7.47;;
46589;SDS011;32313;48.722;9.362;2022-09-21T07:13:55;8.37;;;6.47;;
46589;SDS011;32313;48.722;9.362;2022-09-21T07:16:22;8.73;;;7.23;;
46589;SDS011;32313;48.722;9.362;2022-09-21T07:18:54;37.60;;;9.87;;
46589;SDS011;32313;48.722;9.362;2022-09-21T07:21:20;11.70;;;7.53;;
46589;SDS011;32313;48.722;9.362;2022-09-21T07:23:45;8.93;;;7.70;;
46589;SDS011;32313;48.722;9.362;2022-09-21T07:26:14;148.33;;;15.73;;
46589;SDS011;32313;48.722;9.362;2022-09-21T07:28:40;7.60;;;6.90;;
46589;SDS011;32313;48.722;9.362;2022-09-21T07:33:32;34.53;;;8.87;;
46589;SDS011;32313;48.722;9.362;2022-09-21T07:35:59;11.23;;;7.53;;
46589;SDS011;32313;48.722;9.362;2022-09-21T07:38:25;7.53;;;6.73;;
46589;SDS011;32313;48.722;9.362;2022-09-21T07:40:56;11.57;;;7.10;;
46589;SDS011;32313;48.722;9.362;2022-09-21T07:43:27;7.73;;;6.17;;
46589;SDS011;32313;48.722;9.362;2022-09-21T07:45:53;8.10;;;7.30;;
46589;SDS011;32313;48.722;9.362;2022-09-21T07:48:20;8.20;;;6.70;;
46589;SDS011;32313;48.722;9.362;2022-09-21T07:50:46;8.30;;;7.00;;
46589;SDS011;32313;48.722;9.362;2022-09-21T07:53:13;9.77;;;7.00;;
46589;SDS011;32313;48.722;9.362;2022-09-21T07:55:40;8.90;;;6.27;;
46589;SDS011;32313;48.722;9.362;2022-09-21T07:58:06;9.83;;;6.57;;
46589;SDS011;32313;48.722;9.362;2022-09-21T08:00:50;6.70;;;5.40;;
46589;SDS011;32313;48.722;9.362;2022-09-21T08:03:16;7.03;;;6.43;;
46589;SDS011;32313;48.722;9.362;2022-09-21T08:05:42;8.77;;;6.20;;
46589;SDS011;32313;48.722;9.362;2022-09-21T08:08:07;8.20;;;5.43;;
46589;SDS011;32313;48.722;9.362;2022-09-21T08:10:34;7.17;;;5.17;;
46589;SDS011;32313;48.722;9.362;2022-09-21T08:13:00;9.53;;;5.57;;
46589;SDS011;32313;48.722;9.362;2022-09-21T08:15:26;7.40;;;5.80;;
46589;SDS011;32313;48.722;9.362;2022-09-21T08:17:52;6.83;;;4.87;;
46589;SDS011;32313;48.722;9.362;2022-09-21T08:20:19;5.60;;;5.07;;
46589;SDS011;32313;48.722;9.362;2022-09-21T08:22:46;6.33;;;5.17;;
46589;SDS011;32313;48.722;9.362;2022-09-21T08:25:12;6.47;;;5.90;;
46589;SDS011;32313;48.722;9.362;2022-09-21T08:27:37;6.87;;;4.40;;
46589;SDS011;32313;48.722;9.362;2022-09-21T08:30:05;8.53;;;5.23;;
46589;SDS011;32313;48.722;9.362;2022-09-21T08:32:31;7.17;;;4.87;;
46589;SDS011;32313;48.722;9.362;2022-09-21T08:34:57;6.70;;;4.73;;
46589;SDS011;32313;48.722;9.362;2022-09-21T08:37:23;5.77;;;4.33;;
46589;SDS011;32313;48.722;9.362;2022-09-21T08:39:49;6.53;;;4.97;;
46589;SDS011;32313;48.722;9.362;2022-09-21T08:45:00;7.73;;;4.83;;
46589;SDS011;32313;48.722;9.362;2022-09-21T08:47:40;6.43;;;4.97;;
46589;SDS011;32313;48.722;9.362;2022-09-21T08:50:19;6.17;;;4.77;;
46589;SDS011;32313;48.722;9.362;2022-09-21T08:52:50;7.20;;;4.00;;
46589;SDS011;32313;48.722;9.362;2022-09-21T08:55:21;4.43;;;3.30;;
46589;SDS011;32313;48.722;9.362;2022-09-21T08:57:48;6.97;;;4.53;;
46589;SDS011;32313;48.722;9.362;2022-09-21T09:00:15;5.40;;;3.73;;
46589;SDS011;32313;48.722;9.362;2022-09-21T09:05:43;4.63;;;3.10;;
46589;SDS011;32313;48.722;9.362;2022-09-21T09:08:24;4.77;;;3.37;;
46589;SDS011;32313;48.722;9.362;2022-09-21T09:19:40;2.30;;;1.50;;
46589;SDS011;32313;48.722;9.362;2022-09-21T09:22:11;3.63;;;1.90;;
46589;SDS011;32313;48.722;9.362;2022-09-21T09:24:42;2.17;;;1.40;;
46589;SDS011;32313;48.722;9.362;2022-09-21T09:27:18;2.53;;;1.50;;
46589;SDS011;32313;48.722;9.362;2022-09-21T09:29:58;4.53;;;1.53;;
46589;SDS011;32313;48.722;9.362;2022-09-21T09:32:32;2.77;;;1.60;;
46589;SDS011;32313;48.722;9.362;2022-09-21T09:35:25;2.33;;;1.50;;
46589;SDS011;32313;48.722;9.362;2022-09-21T09:38:17;1.87;;;1.37;;
46589;SDS011;32313;48.722;9.362;2022-09-21T09:51:54;1.27;;;1.17;;
46589;SDS011;32313;48.722;9.362;2022-09-21T09:54:20;2.97;;;1.13;;
46589;SDS011;32313;48.722;9.362;2022-09-21T09:56:48;3.27;;;1.40;;
46589;SDS011;32313;48.722;9.362;2022-09-21T10:04:53;2.00;;;1.57;;
46589;SDS011;32313;48.722;9.362;2022-09-21T10:07:36;1.87;;;1.50;;
46589;SDS011;32313;48.722;9.362;2022-09-21T10:15:53;1.70;;;1.40;;
46589;SDS011;32313;48.722;9.362;2022-09-21T10:21:06;1.97;;;1.50;;
46589;SDS011;32313;48.722;9.362;2022-09-21T10:23:34;2.00;;;1.40;;
46589;SDS011;32313;48.722;9.362;2022-09-21T10:28:33;3.30;;;1.50;;
46589;SDS011;32313;48.722;9.362;2022-09-21T10:33:42;1.60;;;1.40;;
46589;SDS011;32313;48.722;9.362;2022-09-21T10:36:29;2.47;;;1.40;;
46589;SDS011;32313;48.722;9.362;2022-09-21T10:44:21;1.87;;;1.40;;
46589;SDS011;32313;48.722;9.362;2022-09-21T10:46:50;3.33;;;1.20;;
46589;SDS011;32313;48.722;9.362;2022-09-21T10:49:24;1.37;;;1.00;;
46589;SDS011;32313;48.722;9.362;2022-09-21T10:51:53;11.90;;;2.10;;
46589;SDS011;32313;48.722;9.362;2022-09-21T10:54:22;2.97;;;1.23;;
46589;SDS011;32313;48.722;9.362;2022-09-21T10:56:56;5.90;;;1.77;;
46589;SDS011;32313;48.722;9.362;2022-09-21T10:59:28;2.63;;;1.50;;
46589;SDS011;32313;48.722;9.362;2022-09-21T11:01:56;2.20;;;1.20;;
46589;SDS011;32313;48.722;9.362;2022-09-21T11:07:05;2.13;;;1.10;;
46589;SDS011;32313;48.722;9.362;2022-09-21T11:09:52;2.70;;;1.17;;
46589;SDS011;32313;48.722;9.362;2022-09-21T11:12:30;1.40;;;1.00;;
46589;SDS011;32313;48.722;9.362;2022-09-21T11:15:11;2.10;;;1.20;;
46589;SDS011;32313;48.722;9.362;2022-09-21T11:17:48;1.47;;;1.30;;
46589;SDS011;32313;48.722;9.362;2022-09-21T11:20:32;1.00;;;0.90;;
46589;SDS011;32313;48.722;9.362;2022-09-21T11:23:09;1.88;;;0.90;;
46589;SDS011;32313;48.722;9.362;2022-09-21T11:25:45;1.73;;;1.08;;
46589;SDS011;32313;48.722;9.362;2022-09-21T11:31:15;2.53;;;1.10;;
46589;SDS011;32313;48.722;9.362;2022-09-21T11:34:31;1.25;;;1.10;;
46589;SDS011;32313;48.722;9.362;2022-09-21T11:37:09;1.60;;;1.00;;
46589;SDS011;32313;48.722;9.362;2022-09-21T11:42:46;1.92;;;1.00;;
46589;SDS011;32313;48.722;9.362;2022-09-21T11:45:44;1.25;;;0.88;;
46589;SDS011;32313;48.722;9.362;2022-09-21T12:05:01;1.67;;;1.00;;
46589;SDS011;32313;48.722;9.362;2022-09-21T12:10:47;2.08;;;0.80;;
46589;SDS011;32313;48.722;9.362;2022-09-21T12:16:09;1.67;;;1.15;;
46589;SDS011;32313;48.722;9.362;2022-09-21T12:23:58;2.65;;;1.20;;
46589;SDS011;32313;48.722;9.362;2022-09-21T12:26:40;2.05;;;0.90;;
46589;SDS011;32313;48.722;9.362;2022-09-21T12:29:19;2.30;;;1.00;;
46589;SDS011;32313;48.722;9.362;2022-09-21T12:32:21;1.00;;;0.73;;
46589;SDS011;32313;48.722;9.362;2022-09-21T12:35:04;2.35;;;1.20;;
46589;SDS011;32313;48.722;9.362;2022-09-21T12:40:35;1.35;;;0.80;;
46589;SDS011;32313;48.722;9.362;2022-09-21T12:43:11;0.90;;;0.70;;
46589;SDS011;32313;48.722;9.362;2022-09-21T12:45:39;0.93;;;0.70;;
46589;SDS011;32313;48.722;9.362;2022-09-21T12:50:56;1.02;;;0.93;;
46589;SDS011;32313;48.722;9.362;2022-09-21T12:53:50;2.08;;;1.08;;
46589;SDS011;32313;48.722;9.362;2022-09-21T12:56:35;1.00;;;0.90;;
46589;SDS011;32313;48.722;9.362;2022-09-21T13:07:25;0.82;;;0.80;;
46589;SDS011;32313;48.722;9.362;2022-09-21T13:09:56;1.47;;;0.70;;
46589;SDS011;32313;48.722;9.362;2022-09-21T13:12:27;1.83;;;1.20;;
46589;SDS011;32313;48.722;9.362;2022-09-21T13:15:42;1.20;;;1.10;;
46589;SDS011;32313;48.722;9.362;2022-09-21T13:18:04;1.67;;;1.00;;
46589;SDS011;32313;48.722;9.362;2022-09-21T13:20:40;1.90;;;1.03;;
46589;SDS011;32313;48.722;9.362;2022-09-21T13:23:13;1.50;;;1.10;;
46589;SDS011;32313;48.722;9.362;2022-09-21T13:25:46;1.13;;;1.10;;
46589;SDS011;32313;48.722;9.362;2022-09-21T13:31:27;1.03;;;0.93;;
46589;SDS011;32313;48.722;9.362;2022-09-21T13:34:20;1.30;;;1.17;;
46589;SDS011;32313;48.722;9.362;2022-09-21T13:39:44;1.10;;;1.10;;
46589;SDS011;32313;48.722;9.362;2022-09-21T13:44:58;1.10;;;1.10;;
46589;SDS011;32313;48.722;9.362;2022-09-21T13:47:46;1.27;;;1.17;;
46589;SDS011;32313;48.722;9.362;2022-09-21T13:53:02;1.40;;;1.30;;
46589;SDS011;32313;48.722;9.362;2022-09-21T13:55:32;1.50;;;1.40;;
46589;SDS011;32313;48.722;9.362;2022-09-21T13:58:06;2.83;;;1.43;;
46589;SDS011;32313;48.722;9.362;2022-09-21T14:00:52;2.00;;;1.60;;
46589;SDS011;32313;48.722;9.362;2022-09-21T14:06:08;1.60;;;1.30;;
46589;SDS011;32313;48.722;9.362;2022-09-21T14:33:11;1.70;;;1.20;;
46589;SDS011;32313;48.722;9.362;2022-09-21T14:35:50;1.10;;;1.00;;
46589;SDS011;32313;48.722;9.362;2022-09-21T14:38:18;1.23;;;1.00;;
46589;SDS011;32313;48.722;9.362;2022-09-21T14:40:55;1.73;;;1.00;;
46589;SDS011;32313;48.722;9.362;2022-09-21T14:43:29;1.17;;;1.00;;
46589;SDS011;32313;48.722;9.362;2022-09-21T14:51:55;3.90;;;1.00;;
46589;SDS011;32313;48.722;9.362;2022-09-21T14:57:12;2.00;;;1.00;;
46589;SDS011;32313;48.722;9.362;2022-09-21T15:15:28;1.77;;;1.10;;
46589;SDS011;32313;48.722;9.362;2022-09-21T15:18:11;0.90;;;0.90;;
46589;SDS011;32313;48.722;9.362;2022-09-21T15:20:44;1.10;;;1.00;;
46589;SDS011;32313;48.722;9.362;2022-09-21T15:23:26;1.20;;;1.03;;
46589;SDS011;32313;48.722;9.362;2022-09-21T15:25:56;1.17;;;1.07;;
46589;SDS011;32313;48.722;9.362;2022-09-21T15:28:42;1.50;;;0.90;;
46589;SDS011;32313;48.722;9.362;2022-09-21T15:31:13;1.50;;;1.17;;
46589;SDS011;32313;48.722;9.362;2022-09-21T15:33:39;1.10;;;1.00;;
46589;SDS011;32313;48.722;9.362;2022-09-21T15:36:07;1.10;;;1.00;;
46589;SDS011;32313;48.722;9.362;2022-09-21T15:38:34;1.57;;;1.20;;
46589;SDS011;32313;48.722;9.362;2022-09-21T15:41:02;1.10;;;1.10;;
46589;SDS011;32313;48.722;9.362;2022-09-21T15:43:29;1.67;;;1.20;;
46589;SDS011;32313;48.722;9.362;2022-09-21T15:46:02;1.47;;;1.00;;
46589;SDS011;32313;48.722;9.362;2022-09-21T15:48:34;110.50;;;16.13;;
46589;SDS011;32313;48.722;9.362;2022-09-21T15:53:41;5.77;;;1.83;;
46589;SDS011;32313;48.722;9.362;2022-09-21T15:56:20;1.20;;;1.10;;
46589;SDS011;32313;48.722;9.362;2022-09-21T15:58:49;1.20;;;1.10;;
46589;SDS011;32313;48.722;9.362;2022-09-21T16:01:18;0.90;;;0.90;;
46589;SDS011;32313;48.722;9.362;2022-09-21T16:03:47;1.20;;;1.10;;
46589;SDS011;32313;48.722;9.362;2022-09-21T16:12:26;109.20;;;14.33;;
46589;SDS011;32313;48.722;9.362;2022-09-21T16:15:25;11.00;;;3.40;;
46589;SDS011;32313;48.722;9.362;2022-09-21T16:17:53;7.90;;;2.40;;
46589;SDS011;32313;48.722;9.362;2022-09-21T16:20:22;3.40;;;1.80;;
46589;SDS011;32313;48.722;9.362;2022-09-21T16:23:05;2.67;;;1.40;;
46589;SDS011;32313;48.722;9.362;2022-09-21T16:26:03;2.17;;;1.60;;
46589;SDS011;32313;48.722;9.362;2022-09-21T16:28:37;2.60;;;1.77;;
46589;SDS011;32313;48.722;9.362;2022-09-21T16:38:46;2.97;;;1.70;;
46589;SDS011;32313;48.722;9.362;2022-09-21T16:41:13;2.00;;;1.80;;
46589;SDS011;32313;48.722;9.362;2022-09-21T16:43:40;2.00;;;1.90;;
46589;SDS011;32313;48.722;9.362;2022-09-21T16:46:11;2.10;;;2.00;;
46589;SDS011;32313;48.722;9.362;2022-09-21T16:48:37;3.10;;;1.90;;
46589;SDS011;32313;48.722;9.362;2022-09-21T16:51:15;1.73;;;1.63;;
46589;SDS011;32313;48.722;9.362;2022-09-21T16:53:55;2.20;;;2.00;;
46589;SDS011;32313;48.722;9.362;2022-09-21T16:56:22;3.07;;;1.87;;
46589;SDS011;32313;48.722;9.362;2022-09-21T16:58:48;3.57;;;2.00;;
46589;SDS011;32313;48.722;9.362;2022-09-21T17:01:14;2.20;;;2.00;;
46589;SDS011;32313;48.722;9.362;2022-09-21T17:03:43;2.10;;;2.00;;
46589;SDS011;32313;48.722;9.362;2022-09-21T17:06:20;2.10;;;2.00;;
46589;SDS011;32313;48.722;9.362;2022-09-21T17:08:47;3.93;;;2.40;;
46589;SDS011;32313;48.722;9.362;2022-09-21T17:11:16;3.00;;;2.37;;
46589;SDS011;32313;48.722;9.362;2022-09-21T17:13:49;8.47;;;2.67;;
46589;SDS011;32313;48.722;9.362;2022-09-21T17:16:16;3.17;;;2.90;;
46589;SDS011;32313;48.722;9.362;2022-09-21T17:18:46;5.50;;;2.67;;
46589;SDS011;32313;48.722;9.362;2022-09-21T17:21:12;4.97;;;2.73;;
46589;SDS011;32313;48.722;9.362;2022-09-21T17:23:39;3.00;;;2.67;;
46589;SDS011;32313;48.722;9.362;2022-09-21T17:26:12;18.03;;;4.47;;
46589;SDS011;32313;48.722;9.362;2022-09-21T17:28:43;28.93;;;5.83;;
46589;SDS011;32313;48.722;9.362;2022-09-21T17:31:13;4.20;;;3.10;;
46589;SDS011;32313;48.722;9.362;2022-09-21T17:33:42;4.70;;;3.37;;
46589;SDS011;32313;48.722;9.362;2022-09-21T17:36:11;3.80;;;3.30;;
46589;SDS011;32313;48.722;9.362;2022-09-21T17:38:38;4.13;;;3.73;;
46589;SDS011;32313;48.722;9.362;2022-09-21T17:41:14;4.93;;;2.87;;
46589;SDS011;32313;48.722;9.362;2022-09-21T17:44:01;4.77;;;3.30;;
46589;SDS011;32313;48.722;9.362;2022-09-21T17:46:54;4.90;;;3.43;;
46589;SDS011;32313;48.722;9.362;2022-09-21T17:49:25;5.33;;;3.80;;
46589;SDS011;32313;48.722;9.362;2022-09-21T17:51:50;4.00;;;3.00;;
46589;SDS011;32313;48.722;9.362;2022-09-21T17:54:35;5.73;;;3.53;;
46589;SDS011;32313;48.722;9.362;2022-09-21T17:59:38;5.87;;;3.57;;
46589;SDS011;32313;48.722;9.362;2022-09-21T18:02:12;3.77;;;3.33;;
46589;SDS011;32313;48.722;9.362;2022-09-21T18:04:47;6.47;;;3.37;;
46589;SDS011;32313;48.722;9.362;2022-09-21T18:07:20;4.80;;;3.43;;
46589;SDS011;32313;48.722;9.362;2022-09-21T18:09:47;4.70;;;3.43;;
46589;SDS011;32313;48.722;9.362;2022-09-21T18:14:54;3.77;;;3.47;;
46589;SDS011;32313;48.722;9.362;2022-09-21T18:20:20;4.50;;;3.47;;
46589;SDS011;32313;48.722;9.362;2022-09-21T18:23:24;6.10;;;4.30;;
46589;SDS011;32313;48.722;9.362;2022-09-21T18:26:01;4.23;;;3.93;;
46589;SDS011;32313;48.722;9.362;2022-09-21T18:36:30;4.20;;;3.70;;
46589;SDS011;32313;48.722;9.362;2022-09-21T18:39:08;4.13;;;3.73;;
46589;SDS011;32313;48.722;9.362;2022-09-21T18:41:50;4.30;;;4.00;;
46589;SDS011;32313;48.722;9.362;2022-09-21T18:44:37;4.30;;;4.00;;
46589;SDS011;32313;48.722;9.362;2022-09-21T18:47:21;4.87;;;4.40;;
46589;SDS011;32313;48.722;9.362;2022-09-21T18:52:56;5.33;;;4.83;;
46589;SDS011;32313;48.722;9.362;2022-09-21T18:55:26;5.17;;;4.67;;
46589;SDS011;32313;48.722;9.362;2022-09-21T18:57:55;5.50;;;5.10;;
46589;SDS011;32313;48.722;9.362;2022-09-21T19:00:25;6.13;;;5.57;;
46589;SDS011;32313;48.722;9.362;2022-09-21T19:02:56;5.73;;;5.33;;
46589;SDS011;32313;48.722;9.362;2022-09-21T19:05:22;5.57;;;5.17;;
46589;SDS011;32313;48.722;9.362;2022-09-21T19:08:02;5.80;;;5.30;;
46589;SDS011;32313;48.722;9.362;2022-09-21T19:10:38;5.80;;;5.30;;
46589;SDS011;32313;48.722;9.362;2022-09-21T19:13:24;5.83;;;5.20;;
46589;SDS011;32313;48.722;9.362;2022-09-21T19:19:01;5.67;;;5.17;;
46589;SDS011;32313;48.722;9.362;2022-09-21T19:21:49;5.40;;;4.90;;